Time;durP1;ratioP1;P1;durP2;ratioP2;P2;SDS_P1;SDS_P2;PMS_P1;PMS_P2;Temp;Humidity;BMP_temperature;BMP_pressure;BME280_temperature;BME280_humidity;BME280_pressure;Samples;Min_cycle;Max_cycle;Signal;HPM_P1;HPM_P2
2022/05/27 00:01:09;;;;;;;;;;;;;;;-142.75;100.00;77127.41;5071813;28;19920;-66
2022/05/27 00:03:34;;;;;;;;;;;;;;;-142.75;100.00;77125.44;5072065;28;20305;-65
2022/05/27 00:06:00;;;;;;;;;;;;;;;-142.75;100.00;77127.41;5070514;28;19986;-65
2022/05/27 00:08:25;;;;;;;;;;;;;;;-142.75;100.00;77127.41;5070047;28;19916;-65
2022/05/27 00:10:51;;;;;;;;;;;;;;;-142.75;100.00;77127.41;5071681;28;19917;-65
2022/05/27 00:13:16;;;;;;;;;;;;;;;-142.75;100.00;77125.44;5071475;28;19923;-65
2022/05/27 00:15:41;;;;;;;;;;;;;;;-142.75;100.00;77133.31;5071539;28;19916;-66
2022/05/27 00:18:07;;;;;;;;;;;;;;;-142.75;100.00;77145.13;5071104;28;19986;-65
2022/05/27 00:20:32;;;;;;;;;;;;;;;-142.75;100.00;77141.19;5071529;28;19917;-65
2022/05/27 00:22:58;;;;;;;;;;;;;;;-142.75;100.00;77164.81;5071470;28;19924;-65
2022/05/27 00:25:23;;;;;;;;;;;;;;;-142.75;100.00;77178.59;5071405;28;19978;-65
2022/05/27 00:27:48;;;;;;;;;;;;;;;-142.75;100.00;77178.59;5071328;28;19923;-65
2022/05/27 00:30:13;;;;;;;;;;;;;;;-142.75;100.00;77214.03;5070011;28;19916;-65
2022/05/27 00:32:39;;;;;;;;;;;;;;;-142.75;100.00;77247.50;5070206;28;20285;-65
2022/05/27 00:35:05;;;;;;;;;;;;;;;-142.75;100.00;77282.94;5071175;28;19924;-65
2022/05/27 00:37:30;;;;;;;;;;;;;;;-142.75;100.00;77306.56;5071316;28;19917;-65
2022/05/27 00:39:56;;;;;;;;;;;;;;;-142.75;100.00;77308.53;5070961;28;19916;-65
2022/05/27 00:42:21;;;;;;;;;;;;;;;-142.75;100.00;77314.44;5071222;28;19916;-65
2022/05/27 00:44:46;;;;;;;;;;;;;;;-142.75;100.00;77330.19;5071260;28;19924;-65
2022/05/27 00:47:13;;;;;;;;;;;;;;;-142.75;100.00;77351.84;5071167;28;20333;-65
2022/05/27 00:49:46;;;;;;;;;;;;;;;-142.75;100.00;77351.84;5070778;28;19963;-65
2022/05/27 00:52:13;;;;;;;;;;;;;;;-142.75;100.00;77342.00;5071108;28;19923;-65
2022/05/27 00:54:40;;;;;;;;;;;;;;;-142.75;100.00;77343.97;5071126;28;19928;-65
2022/05/27 00:57:08;;;;;;;;;;;;;;;-142.75;100.00;77338.06;5071036;28;19927;-65
2022/05/27 00:59:42;;;;;;;;;;;;;;;-142.75;100.00;77336.09;5070655;28;19978;-65
2022/05/27 01:02:07;;;;;;;;;;;;;;;-142.75;100.00;77334.13;5070970;28;19921;-65
2022/05/27 01:04:33;;;;;;;;;;;;;;;-142.75;100.00;77326.25;5071217;28;19923;-65
2022/05/27 01:06:59;;;;;;;;;;;;;;;-142.75;100.00;77334.13;5070950;28;19916;-65
2022/05/27 01:09:25;;;;;;;;;;;;;;;-142.75;100.00;77318.38;5071404;28;19920;-65
2022/05/27 01:11:50;;;;;;;;;;;;;;;-142.75;100.00;77314.44;5075009;28;19917;-65
2022/05/27 01:14:34;;;;;;;;;;;;;;;-142.75;100.00;77314.44;5074938;28;19920;-65
2022/05/27 01:17:09;;;;;;;;;;;;;;;-142.75;100.00;77320.34;5073734;28;20389;-65
2022/05/27 01:22:56;;;;;;;;;;;;;;;-142.75;100.00;77314.44;5074952;28;19923;-64
2022/05/27 01:25:39;;;;;;;;;;;;;;;-142.75;100.00;77322.31;5074801;28;19962;-65
2022/05/27 01:28:23;;;;;;;;;;;;;;;-142.75;100.00;77318.38;5074498;28;19920;-65
2022/05/27 01:30:53;;;;;;;;;;;;;;;-142.75;100.00;77322.31;5074647;28;19962;-65
2022/05/27 01:33:18;;;;;;;;;;;;;;;-142.75;100.00;77322.31;5074451;28;19931;-65
2022/05/27 01:36:02;;;;;;;;;;;;;;;-142.75;100.00;77314.44;5074613;28;19916;-65
2022/05/27 01:38:32;;;;;;;;;;;;;;;-142.75;100.00;77310.50;5074078;28;20072;-65
2022/05/27 01:41:06;;;;;;;;;;;;;;;-142.75;100.00;77318.38;5074432;28;19920;-65
2022/05/27 01:43:49;;;;;;;;;;;;;;;-142.75;100.00;77308.53;5074302;28;19962;-65
2022/05/27 01:46:17;;;;;;;;;;;;;;;-142.75;100.00;77306.56;5074402;28;19920;-65
2022/05/27 01:49:01;;;;;;;;;;;;;;;-142.75;100.00;77302.63;5074069;28;19917;-65
2022/05/27 01:51:39;;;;;;;;;;;;;;;-142.75;100.00;77302.63;5074423;28;19920;-65
2022/05/27 01:54:25;;;;;;;;;;;;;;;-142.75;100.00;77308.53;5074127;28;19920;-65
2022/05/27 01:56:59;;;;;;;;;;;;;;;-142.75;100.00;77298.69;5031635;28;19916;-65
2022/05/27 01:59:30;;;;;;;;;;;;;;;-142.75;100.00;77302.63;5073891;28;19920;-65
2022/05/27 02:02:05;;;;;;;;;;;;;;;-142.75;100.00;77306.56;5074289;28;19921;-65
2022/05/27 02:04:36;;;;;;;;;;;;;;;-142.75;100.00;77308.53;5074067;28;20412;-65
2022/05/27 02:07:05;;;;;;;;;;;;;;;-142.75;100.00;77304.59;5074037;28;19916;-65
2022/05/27 02:09:30;;;;;;;;;;;;;;;-142.75;100.00;77302.63;5073689;28;19917;-65
2022/05/27 02:12:02;;;;;;;;;;;;;;;-142.75;100.00;77296.72;5073917;28;19938;-65
2022/05/27 02:14:47;;;;;;;;;;;;;;;-142.75;100.00;77294.75;5073798;28;19920;-65
2022/05/27 02:17:18;;;;;;;;;;;;;;;-142.75;100.00;77294.75;5073425;28;20381;-65
2022/05/27 02:19:47;;;;;;;;;;;;;;;-142.75;100.00;77294.75;5072196;28;19917;-65
2022/05/27 02:22:21;;;;;;;;;;;;;;;-142.75;100.00;77298.69;5086733;28;20344;-65
2022/05/27 02:24:56;;;;;;;;;;;;;;;-142.75;100.00;77294.75;5093804;28;19916;-65
2022/05/27 02:27:24;;;;;;;;;;;;;;;-142.75;100.00;77298.69;5093903;28;19969;-65
2022/05/27 02:29:52;;;;;;;;;;;;;;;-142.75;100.00;77302.63;5093646;28;20373;-65
2022/05/27 02:32:21;;;;;;;;;;;;;;;-142.75;100.00;77294.75;5094011;28;19916;-65
2022/05/27 02:35:10;;;;;;;;;;;;;;;-142.75;100.00;77292.78;5093740;28;19946;-65
2022/05/27 02:37:37;;;;;;;;;;;;;;;-142.75;100.00;77290.81;5093489;28;19920;-65
2022/05/27 02:40:05;;;;;;;;;;;;;;;-142.75;100.00;77288.84;5093514;28;19921;-65
2022/05/27 02:42:34;;;;;;;;;;;;;;;-142.75;100.00;77302.63;5093764;28;20393;-65
2022/05/27 02:45:05;;;;;;;;;;;;;;;-142.75;100.00;77296.72;5093514;28;19928;-65
2022/05/27 02:47:49;;;;;;;;;;;;;;;-142.75;100.00;77308.53;5093397;28;20455;-65
2022/05/27 02:50:33;;;;;;;;;;;;;;;-142.75;100.00;77310.50;5093208;28;19969;-65
2022/05/27 02:53:10;;;;;;;;;;;;;;;-142.75;100.00;77314.44;5072177;28;19923;-65
2022/05/27 02:55:41;;;;;;;;;;;;;;;-142.75;100.00;77322.31;5073174;28;20420;-65
2022/05/27 02:58:07;;;;;;;;;;;;;;;-142.75;100.00;77314.44;5072280;28;19917;-65
2022/05/27 03:00:33;;;;;;;;;;;;;;;-142.75;100.00;77326.25;5073035;28;19942;-65
2022/05/27 03:02:59;;;;;;;;;;;;;;;-142.75;100.00;77334.13;5072898;28;20397;-65
2022/05/27 03:05:50;;;;;;;;;;;;;;;-142.75;100.00;77338.06;5072983;28;19916;-65
2022/05/27 03:08:28;;;;;;;;;;;;;;;-142.75;100.00;77338.06;5041834;28;19978;-65
2022/05/27 03:11:05;;;;;;;;;;;;;;;-142.75;100.00;77334.13;5074619;28;19924;-65
2022/05/27 03:13:50;;;;;;;;;;;;;;;-142.75;100.00;77328.22;5076289;28;19916;-65
2022/05/27 03:16:15;;;;;;;;;;;;;;;-142.75;100.00;77330.19;5072718;28;19927;-65
2022/05/27 03:19:03;;;;;;;;;;;;;;;-142.75;100.00;77342.00;5073335;28;19916;-65
2022/05/27 03:21:42;;;;;;;;;;;;;;;-142.75;100.00;77338.06;5092390;28;19916;-64
2022/05/27 03:24:20;;;;;;;;;;;;;;;-142.75;100.00;77338.06;5092712;28;19938;-65
2022/05/27 03:27:12;;;;;;;;;;;;;;;-142.75;100.00;77340.03;5092728;28;19920;-65
2022/05/27 03:29:51;;;;;;;;;;;;;;;-142.75;100.00;77349.88;5068427;28;19974;-65
2022/05/27 03:32:36;;;;;;;;;;;;;;;-142.75;100.00;77347.91;5091968;28;20355;-65
2022/05/27 03:35:19;;;;;;;;;;;;;;;-142.75;100.00;77355.78;5092422;28;20290;-65
2022/05/27 03:37:49;;;;;;;;;;;;;;;-142.75;100.00;77359.72;5092010;28;19916;-64
2022/05/27 03:40:40;;;;;;;;;;;;;;;-142.75;100.00;77349.88;5078646;22;19925;-68
2022/05/27 03:43:06;;;;;;;;;;;;;;;-142.75;100.00;77353.81;5009796;28;19943;-68
2022/05/27 03:45:46;;;;;;;;;;;;;;;-142.75;100.00;77363.66;5052179;28;19917;-68
2022/05/27 03:48:11;;;;;;;;;;;;;;;-142.75;100.00;77359.72;5051880;28;19916;-68
2022/05/27 03:50:36;;;;;;;;;;;;;;;-142.75;100.00;77351.84;5051987;28;19924;-68
2022/05/27 03:53:01;;;;;;;;;;;;;;;-142.75;100.00;77361.69;5051890;28;19986;-67
2022/05/27 03:55:27;;;;;;;;;;;;;;;-142.75;100.00;77357.75;5034021;28;19968;-68
2022/05/27 03:57:52;;;;;;;;;;;;;;;-142.75;100.00;77361.69;5051626;28;19921;-66
2022/05/27 04:00:18;;;;;;;;;;;;;;;-142.75;100.00;77363.66;5051808;28;20373;-68
2022/05/27 04:02:44;;;;;;;;;;;;;;;-142.75;100.00;77373.50;5033910;28;19917;-69
2022/05/27 04:05:11;;;;;;;;;;;;;;;-142.75;100.00;77367.59;5051891;28;19920;-68
2022/05/27 04:07:36;;;;;;;;;;;;;;;-142.75;100.00;77361.69;5033748;28;19938;-68
2022/05/27 04:10:02;;;;;;;;;;;;;;;-142.75;100.00;77363.66;5033416;28;19917;-68
2022/05/27 04:12:27;;;;;;;;;;;;;;;-142.75;100.00;77363.66;5051576;28;19917;-69
2022/05/27 04:14:53;;;;;;;;;;;;;;;-142.75;100.00;77369.56;5051591;28;19920;-69
2022/05/27 04:17:27;;;;;;;;;;;;;;;-142.75;100.00;77367.59;5051555;28;20062;-68
2022/05/27 04:19:52;;;;;;;;;;;;;;;-142.75;100.00;77363.66;5051190;28;19921;-68
2022/05/27 04:22:18;;;;;;;;;;;;;;;-142.75;100.00;77361.69;5051366;28;20344;-67
2022/05/27 04:24:43;;;;;;;;;;;;;;;-142.75;100.00;77357.75;5033493;28;19916;-68
2022/05/27 04:27:12;;;;;;;;;;;;;;;-142.75;100.00;77359.72;5051386;28;19956;-68
2022/05/27 04:29:38;;;;;;;;;;;;;;;-142.75;100.00;77373.50;5033117;28;19951;-69
2022/05/27 04:32:04;;;;;;;;;;;;;;;-142.75;100.00;77377.44;5051384;28;19939;-68
2022/05/27 04:34:29;;;;;;;;;;;;;;;-142.75;100.00;77373.50;5051173;28;19921;-66
2022/05/27 04:36:54;;;;;;;;;;;;;;;-142.75;100.00;77371.53;5051186;28;19921;-68
2022/05/27 04:39:19;;;;;;;;;;;;;;;-142.75;100.00;77373.50;5032809;28;20378;-68
2022/05/27 04:41:46;;;;;;;;;;;;;;;-142.75;100.00;77361.69;5051341;28;20016;-68
2022/05/27 04:44:11;;;;;;;;;;;;;;;-142.75;100.00;77357.75;5050204;28;19959;-69
2022/05/27 04:46:36;;;;;;;;;;;;;;;-142.75;100.00;77359.72;5051111;28;19963;-68
2022/05/27 04:49:01;;;;;;;;;;;;;;;-142.75;100.00;77353.81;5050783;28;20003;-68
2022/05/27 04:51:26;;;;;;;;;;;;;;;-142.75;100.00;77361.69;5050878;28;19924;-69
2022/05/27 04:53:51;;;;;;;;;;;;;;;-142.75;100.00;77351.84;5051043;28;20028;-68
2022/05/27 04:56:17;;;;;;;;;;;;;;;-142.75;100.00;77353.81;5051142;28;19916;-68
2022/05/27 04:58:42;;;;;;;;;;;;;;;-142.75;100.00;77332.16;5032755;28;20017;-68
2022/05/27 05:01:07;;;;;;;;;;;;;;;-142.75;100.00;77318.38;5050992;28;19985;-68
2022/05/27 05:03:32;;;;;;;;;;;;;;;-142.75;100.00;77312.47;5050944;28;19916;-68
2022/05/27 05:05:57;;;;;;;;;;;;;;;-142.75;100.00;77308.53;5050900;28;19951;-68
2022/05/27 05:08:33;;;;;;;;;;;;;;;-142.75;100.00;77310.50;5050584;28;19924;-68
2022/05/27 05:10:58;;;;;;;;;;;;;;;-142.75;100.00;77310.50;5066334;28;19969;-68
2022/05/27 05:13:23;;;;;;;;;;;;;;;-142.75;100.00;77312.47;5066101;28;20374;-68
2022/05/27 05:15:48;;;;;;;;;;;;;;;-142.75;100.00;77316.41;5051023;28;19917;-68
2022/05/27 05:18:13;;;;;;;;;;;;;;;-142.75;100.00;77312.47;5050499;28;20422;-68
2022/05/27 05:20:39;;;;;;;;;;;;;;;-142.75;100.00;77306.56;5050577;28;19924;-68
2022/05/27 05:23:04;;;;;;;;;;;;;;;-142.75;100.00;77306.56;5051013;28;20302;-68
2022/05/27 05:25:29;;;;;;;;;;;;;;;-142.75;100.00;77308.53;5050691;28;19970;-67
2022/05/27 05:27:55;;;;;;;;;;;;;;;-142.75;100.00;77298.69;5050497;28;19927;-66
2022/05/27 05:30:21;;;;;;;;;;;;;;;-142.75;100.00;77292.78;5050748;28;20021;-68
2022/05/27 05:32:47;;;;;;;;;;;;;;;-142.75;100.00;77298.69;5032877;28;19916;-68
2022/05/27 05:35:12;;;;;;;;;;;;;;;-142.75;100.00;77284.91;5065872;28;20050;-66
2022/05/27 05:37:38;;;;;;;;;;;;;;;-142.75;100.00;77298.69;5050869;28;19920;-68
2022/05/27 05:40:04;;;;;;;;;;;;;;;-142.75;100.00;77306.56;5050294;28;19963;-68
2022/05/27 05:42:29;;;;;;;;;;;;;;;-142.75;100.00;77304.59;5032692;28;19920;-67
2022/05/27 05:44:55;;;;;;;;;;;;;;;-142.75;100.00;77310.50;5050533;28;19925;-68
2022/05/27 05:47:20;;;;;;;;;;;;;;;-142.75;100.00;77306.56;5065998;28;19974;-68
2022/05/27 05:49:46;;;;;;;;;;;;;;;-142.75;100.00;77318.38;5050230;28;19920;-68
2022/05/27 05:52:11;;;;;;;;;;;;;;;-142.75;100.00;77330.19;5050443;28;19921;-68
2022/05/27 05:54:36;;;;;;;;;;;;;;;-142.75;100.00;77324.28;5050513;28;19928;-68
2022/05/27 05:57:02;;;;;;;;;;;;;;;-142.75;100.00;77326.25;5069201;28;19928;-68
2022/05/27 05:59:30;;;;;;;;;;;;;;;-142.75;100.00;77322.31;5053961;28;19917;-68
2022/05/27 06:01:55;;;;;;;;;;;;;;;-142.75;100.00;77326.25;5054090;28;19927;-68
2022/05/27 06:04:20;;;;;;;;;;;;;;;-142.75;100.00;77318.38;5053953;28;19917;-69
2022/05/27 06:06:47;;;;;;;;;;;;;;;-142.75;100.00;77314.44;5054081;28;20015;-70
2022/05/27 06:09:12;;;;;;;;;;;;;;;-142.75;100.00;77292.78;5053581;28;19939;-69
2022/05/27 06:11:38;;;;;;;;;;;;;;;-142.75;100.00;77282.94;5053990;28;19928;-69
2022/05/27 06:14:04;;;;;;;;;;;;;;;-142.75;100.00;77282.94;5068409;28;20254;-67
2022/05/27 06:16:29;;;;;;;;;;;;;;;-142.75;100.00;77300.66;5053055;28;19921;-67
2022/05/27 06:18:54;;;;;;;;;;;;;;;-142.75;100.00;77294.75;5052296;28;19927;-68
2022/05/27 06:21:19;;;;;;;;;;;;;;;-142.75;100.00;77302.63;5053091;28;19924;-67
2022/05/27 06:23:45;;;;;;;;;;;;;;;-142.75;100.00;77296.72;5052694;28;19990;-68
2022/05/27 06:26:11;;;;;;;;;;;;;;;-142.75;100.00;77286.88;5052855;28;19938;-67
2022/05/27 06:36:48;;;;;;;;;;;;;;;-142.75;100.00;77271.13;5053548;28;19971;-69
2022/05/27 06:39:14;;;;;;;;;;;;;;;-142.75;100.00;77275.06;5068325;28;19920;-69
2022/05/27 06:41:39;;;;;;;;;;;;;;;-142.75;100.00;77265.22;5053442;28;19916;-69
2022/05/27 06:44:05;;;;;;;;;;;;;;;-142.75;100.00;77249.47;5053168;28;19921;-69
2022/05/27 06:46:31;;;;;;;;;;;;;;;-142.75;100.00;77235.69;5067372;28;20015;-69
2022/05/27 06:48:57;;;;;;;;;;;;;;;-142.75;100.00;77233.72;5052188;28;19921;-68
2022/05/27 06:51:22;;;;;;;;;;;;;;;-142.75;100.00;77229.78;5052641;28;19956;-69
2022/05/27 06:53:47;;;;;;;;;;;;;;;-142.75;100.00;77239.63;5052323;28;20011;-70
2022/05/27 06:56:13;;;;;;;;;;;;;;;-142.75;100.00;77261.28;5034544;28;19916;-69
2022/05/27 06:58:40;;;;;;;;;;;;;;;-142.75;100.00;77279.00;5052186;28;20394;-69
2022/05/27 07:01:05;;;;;;;;;;;;;;;-142.75;100.00;77314.44;5052429;28;20294;-69
2022/05/27 07:03:31;;;;;;;;;;;;;;;-142.75;100.00;77300.66;5052271;28;19917;-68
2022/05/27 07:05:56;;;;;;;;;;;;;;;-142.75;100.00;77288.84;5052202;28;20271;-70
2022/05/27 07:08:21;;;;;;;;;;;;;;;-142.75;100.00;77247.50;5051105;28;19935;-70
2022/05/27 07:10:46;;;;;;;;;;;;;;;-142.75;100.00;77227.81;5034141;28;19917;-69
2022/05/27 07:13:13;;;;;;;;;;;;;;;-142.75;100.00;77233.72;5034315;28;19917;-69
2022/05/27 07:15:39;;;;;;;;;;;;;;;-142.75;100.00;77214.03;5052348;28;19960;-70
2022/05/27 07:18:04;;;;;;;;;;;;;;;-142.75;100.00;77219.94;5033747;28;20062;-69
2022/05/27 07:20:30;;;;;;;;;;;;;;;-142.75;100.00;77217.97;5051905;28;19917;-69
2022/05/27 07:22:55;;;;;;;;;;;;;;;-142.75;100.00;77237.66;5052056;28;19916;-69
2022/05/27 07:25:20;;;;;;;;;;;;;;;-142.75;100.00;77235.69;5051866;28;19920;-69
2022/05/27 07:27:46;;;;;;;;;;;;;;;-142.75;100.00;77235.69;5051601;28;19948;-69
2022/05/27 07:30:15;;;;;;;;;;;;;;;-142.75;100.00;77200.25;5051590;28;20485;-69
2022/05/27 07:32:40;;;;;;;;;;;;;;;-142.75;100.00;77145.13;5033802;28;19917;-70
2022/05/27 07:35:06;;;;;;;;;;;;;;;-142.75;100.00;77109.69;5051527;28;20293;-69
2022/05/27 07:37:31;;;;;;;;;;;;;;;-142.75;100.00;77101.81;5051815;28;20440;-70
2022/05/27 07:39:56;;;;;;;;;;;;;;;-142.75;100.00;77090.00;5050961;28;19924;-71
2022/05/27 07:42:22;;;;;;;;;;;;;;;-142.75;100.00;77109.69;5051461;28;20282;-70
2022/05/27 07:44:47;;;;;;;;;;;;;;;-142.75;100.00;77137.25;5052063;28;19921;-70
2022/05/27 07:47:12;;;;;;;;;;;;;;;-142.75;100.00;77182.53;5051543;28;20413;-70
2022/05/27 07:49:37;;;;;;;;;;;;;;;-142.75;100.00;77231.75;5050910;28;19969;-70
2022/05/27 07:52:03;;;;;;;;;;;;;;;-142.75;100.00;77261.28;5051511;28;19916;-70
2022/05/27 07:54:29;;;;;;;;;;;;;;;-142.75;100.00;77284.91;5051347;28;19921;-69
2022/05/27 07:56:54;;;;;;;;;;;;;;;-142.75;100.00;77298.69;5051272;28;19936;-71
2022/05/27 07:59:19;;;;;;;;;;;;;;;-142.75;100.00;77298.69;5050971;28;20404;-70
2022/05/27 08:01:44;;;;;;;;;;;;;;;-142.75;100.00;77286.88;5051255;28;20003;-70
2022/05/27 08:04:09;;;;;;;;;;;;;;;-142.75;100.00;77279.00;5051168;28;19916;-67
2022/05/27 08:06:35;;;;;;;;;;;;;;;-142.75;100.00;77294.75;5050976;28;19943;-70
2022/05/27 08:09:00;;;;;;;;;;;;;;;-142.75;100.00;77306.56;5066124;28;19924;-68
2022/05/27 08:11:25;;;;;;;;;;;;;;;-142.75;100.00;77282.94;5050888;28;19917;-68
2022/05/27 08:13:51;;;;;;;;;;;;;;;-142.75;100.00;77263.25;5050953;28;20379;-70
2022/05/27 08:16:17;;;;;;;;;;;;;;;-142.75;100.00;77265.22;5066569;28;19916;-70
2022/05/27 08:18:42;;;;;;;;;;;;;;;-142.75;100.00;77255.38;5050186;28;20326;-67
2022/05/27 08:21:07;;;;;;;;;;;;;;;-142.75;100.00;77229.78;5050920;28;19944;-70
2022/05/27 08:23:32;;;;;;;;;;;;;;;-142.75;100.00;77235.69;5066288;28;19978;-70
2022/05/27 08:25:58;;;;;;;;;;;;;;;-142.75;100.00;77247.50;5050745;28;19917;-70
2022/05/27 08:28:27;;;;;;;;;;;;;;;-142.75;100.00;77227.81;5050289;28;19967;-68
2022/05/27 08:30:55;;;;;;;;;;;;;;;-142.75;100.00;77180.56;5051252;28;19917;-71
2022/05/27 08:33:21;;;;;;;;;;;;;;;-142.75;100.00;77154.97;5051208;28;20271;-69
2022/05/27 08:38:31;;;;;;;;;;;;;;;-142.75;100.00;77074.25;5050765;28;19953;-67
2022/05/27 08:41:09;;;;;;;;;;;;;;;-142.75;100.00;77019.13;5051645;28;19917;-68
2022/05/27 08:43:49;;;;;;;;;;;;;;;-142.75;100.00;76975.81;5051209;28;19916;-68
2022/05/27 08:46:29;;;;;;;;;;;;;;;-142.75;100.00;76962.03;5051092;28;19916;-68
2022/05/27 08:48:57;;;;;;;;;;;;;;;-142.75;100.00;76969.91;5032766;28;19917;-68
2022/05/27 08:51:25;;;;;;;;;;;;;;;-142.75;100.00;77040.78;5051323;28;19920;-68
2022/05/27 08:54:01;;;;;;;;;;;;;;;-142.75;100.00;77042.75;5033047;28;19924;-68
2022/05/27 08:59:37;;;;;;;;;;;;;;;-142.75;100.00;77101.81;5050742;28;19963;-70
2022/05/27 09:02:20;;;;;;;;;;;;;;;-142.75;100.00;77052.59;5051072;28;19921;-70
2022/05/27 09:04:55;;;;;;;;;;;;;;;-142.75;100.00;77027.00;5050982;28;20572;-70
2022/05/27 09:07:24;;;;;;;;;;;;;;;-142.75;100.00;77001.41;5051002;28;19920;-69
2022/05/27 09:09:50;;;;;;;;;;;;;;;-142.75;100.00;77019.13;5049849;28;19917;-70
2022/05/27 09:12:22;;;;;;;;;;;;;;;-142.75;100.00;77032.91;5050163;28;19917;-69
2022/05/27 09:14:52;;;;;;;;;;;;;;;-142.75;100.00;77046.69;5031974;28;19928;-68
2022/05/27 09:17:24;;;;;;;;;;;;;;;-142.75;100.00;76995.50;5050636;28;20386;-70
2022/05/27 09:20:00;;;;;;;;;;;;;;;-142.75;100.00;77003.38;5050502;28;19921;-70
2022/05/27 09:22:28;;;;;;;;;;;;;;;-142.75;100.00;77058.50;5050795;28;20601;-69
2022/05/27 09:25:02;;;;;;;;;;;;;;;-142.75;100.00;76973.84;5050807;28;19924;-70
2022/05/27 09:27:46;;;;;;;;;;;;;;;-142.75;100.00;76952.19;5050749;28;19917;-69
2022/05/27 09:30:13;;;;;;;;;;;;;;;-142.75;100.00;77005.34;5050759;28;20358;-69
2022/05/27 09:33:07;;;;;;;;;;;;;;;-142.75;100.00;77105.75;5054617;28;19917;-69
2022/05/27 09:35:36;;;;;;;;;;;;;;;-142.75;100.00;77143.16;5041252;28;19982;-69
2022/05/27 09:38:03;;;;;;;;;;;;;;;-142.75;100.00;77109.69;5054306;28;20118;-68
2022/05/27 09:40:35;;;;;;;;;;;;;;;-142.75;100.00;77038.81;5054319;28;20438;-69
2022/05/27 09:43:15;;;;;;;;;;;;;;;-142.75;100.00;76983.69;5076067;22;20246;-66
2022/05/27 09:45:40;;;;;;;;;;;;;;;-142.75;100.00;76981.72;5053054;28;19978;-65
2022/05/27 09:48:07;;;;;;;;;;;;;;;-142.75;100.00;77011.25;5053149;28;19999;-66
2022/05/27 09:50:39;;;;;;;;;;;;;;;-142.75;100.00;77052.59;5054321;28;19917;-67
2022/05/27 09:53:05;;;;;;;;;;;;;;;-142.75;100.00;77050.63;5054057;28;19937;-66
2022/05/27 09:55:48;;;;;;;;;;;;;;;-142.75;100.00;76975.81;5054007;28;19921;-66
2022/05/27 09:58:21;;;;;;;;;;;;;;;-142.75;100.00;76932.50;5052484;28;20398;-67
2022/05/27 10:00:51;;;;;;;;;;;;;;;-142.75;100.00;76924.63;5053884;28;19986;-66
2022/05/27 10:03:20;;;;;;;;;;;;;;;-142.75;100.00;76920.69;5053997;28;19916;-67
2022/05/27 10:05:53;;;;;;;;;;;;;;;-142.75;100.00;76942.34;5053943;28;19923;-67
2022/05/27 10:08:25;;;;;;;;;;;;;;;-142.75;100.00;76995.50;5039983;28;20033;-66
2022/05/27 10:11:04;;;;;;;;;;;;;;;-142.75;100.00;76997.47;5053168;28;20022;-67
2022/05/27 10:13:34;;;;;;;;;;;;;;;-142.75;100.00;77040.78;5053831;28;19916;-67
2022/05/27 10:16:11;;;;;;;;;;;;;;;-142.75;100.00;77076.22;5054014;28;20334;-66
2022/05/27 10:18:37;;;;;;;;;;;;;;;-142.75;100.00;77046.69;5052338;28;19978;-66
2022/05/27 10:21:20;;;;;;;;;;;;;;;-142.75;100.00;77058.50;5042596;28;19924;-67
2022/05/27 10:23:48;;;;;;;;;;;;;;;-142.75;100.00;77040.78;5034736;28;19923;-66
2022/05/27 10:26:24;;;;;;;;;;;;;;;-142.75;100.00;77025.03;5053557;28;20465;-66
2022/05/27 10:29:13;;;;;;;;;;;;;;;-142.75;100.00;77129.38;5053120;28;19928;-66
2022/05/27 10:31:48;;;;;;;;;;;;;;;-142.75;100.00;77090.00;5031058;28;19960;-66
2022/05/27 10:34:33;;;;;;;;;;;;;;;-142.75;100.00;76991.56;5033626;28;19921;-66
2022/05/27 10:37:03;;;;;;;;;;;;;;;-142.75;100.00;77084.09;5050898;28;20348;-66
2022/05/27 10:39:31;;;;;;;;;;;;;;;-142.75;100.00;77154.97;5051306;28;19917;-66
2022/05/27 10:41:57;;;;;;;;;;;;;;;-142.75;100.00;77064.41;5052346;28;19920;-66
2022/05/27 10:44:22;;;;;;;;;;;;;;;-142.75;100.00;76999.44;5053298;28;20020;-66
2022/05/27 10:46:54;;;;;;;;;;;;;;;-142.75;100.00;76950.22;5052129;28;19925;-66
2022/05/27 10:49:28;;;;;;;;;;;;;;;-142.75;100.00;76977.78;5052885;28;20378;-66
2022/05/27 10:52:06;;;;;;;;;;;;;;;-142.75;100.00;77042.75;5053320;28;19917;-66
2022/05/27 10:54:55;;;;;;;;;;;;;;;-142.75;100.00;77001.41;5052995;28;19928;-65
2022/05/27 11:03:08;;;;;;;;;;;;;;;-142.75;100.00;76942.34;5053327;28;19924;-66
2022/05/27 11:05:33;;;;;;;;;;;;;;;-142.75;100.00;76960.06;5053001;28;19917;-66
2022/05/27 11:08:04;;;;;;;;;;;;;;;-142.75;100.00;76902.97;5052708;28;20282;-65
2022/05/27 11:10:48;;;;;;;;;;;;;;;-142.75;100.00;76863.59;5052827;28;19923;-66
2022/05/27 11:16:17;;;;;;;;;;;;;;;-142.75;88.44;76802.56;5052904;28;20032;-66
2022/05/27 11:18:57;;;;;;;;;;;;;;;-142.75;93.10;76796.69;5052221;28;19917;-65
2022/05/27 11:21:25;;;;;;;;;;;;;;;-142.75;88.12;76836.03;5052785;28;20015;-66
2022/05/27 11:24:08;;;;;;;;;;;;;;;-142.75;90.47;76865.56;5052655;28;19917;-66
2022/05/27 11:26:52;;;;;;;;;;;;;;;-142.75;89.01;76895.09;5052694;28;19924;-66
2022/05/27 11:29:42;;;;;;;;;;;;;;;-142.75;83.99;76889.19;5052311;28;20291;-66
2022/05/27 11:32:35;;;;;;;;;;;;;;;-142.75;91.74;76946.28;5052635;28;19951;-66
2022/05/27 11:35:10;;;;;;;;;;;;;;;-142.75;85.68;76922.66;5051263;28;19967;-66
2022/05/27 11:37:44;;;;;;;;;;;;;;;-142.75;89.77;76885.25;5052331;28;19956;-66
2022/05/27 11:40:10;;;;;;;;;;;;;;;-142.75;75.47;76889.19;5052420;28;19920;-66
2022/05/27 11:42:44;;;;;;;;;;;;;;;-142.75;77.47;76873.44;5052130;28;19917;-66
2022/05/27 11:45:10;;;;;;;;;;;;;;;-142.75;75.30;76901.00;5052313;28;20271;-66
2022/05/27 11:47:47;;;;;;;;;;;;;;;-142.75;75.87;76877.38;5052132;28;20012;-66
2022/05/27 11:50:23;;;;;;;;;;;;;;;-142.75;78.20;76934.47;5050892;28;20365;-66
2022/05/27 11:52:57;;;;;;;;;;;;;;;-142.75;77.89;76910.84;5050460;28;19920;-66
2022/05/27 11:55:31;;;;;;;;;;;;;;;-142.75;80.83;76839.97;5052011;28;19974;-66
2022/05/27 11:58:12;;;;;;;;;;;;;;;-142.75;71.87;76832.09;5032667;28;20029;-65
2022/05/27 12:00:41;;;;;;;;;;;;;;;-142.75;68.95;76853.75;5051238;28;19917;-66
2022/05/27 12:03:12;;;;;;;;;;;;;;;-142.75;74.04;76873.44;5051823;28;19923;-66
2022/05/27 12:05:45;;;;;;;;;;;;;;;-142.75;75.73;76873.44;5051906;28;19928;-66
2022/05/27 12:08:30;;;;;;;;;;;;;;;-142.75;76.54;76956.13;5051515;28;19966;-65
2022/05/27 12:11:07;;;;;;;;;;;;;;;-142.75;79.02;76912.81;5051215;28;19920;-66
2022/05/27 12:13:36;;;;;;;;;;;;;;;-142.75;73.25;76902.97;5051710;28;19924;-66
2022/05/27 12:16:04;;;;;;;;;;;;;;;-142.75;74.63;76901.00;5051646;28;19928;-65
2022/05/27 12:18:43;;;;;;;;;;;;;;;-142.75;73.77;76922.66;5051273;28;19927;-66
2022/05/27 12:21:11;;;;;;;;;;;;;;;-142.75;73.85;76920.69;5051539;28;19920;-66
2022/05/27 12:23:39;;;;;;;;;;;;;;;-142.75;76.45;76881.31;5051536;28;19916;-66
2022/05/27 12:26:05;;;;;;;;;;;;;;;-142.75;75.38;76895.09;5051528;28;19924;-66
2022/05/27 12:28:33;;;;;;;;;;;;;;;-142.75;73.60;76845.88;5051312;28;19916;-66
2022/05/27 12:30:59;;;;;;;;;;;;;;;-142.75;72.54;76865.56;5051722;28;20297;-66
2022/05/27 12:33:26;;;;;;;;;;;;;;;-142.75;72.32;76902.97;5051278;28;19916;-66
2022/05/27 12:36:02;;;;;;;;;;;;;;;-142.75;77.95;76902.97;5051218;28;19964;-66
2022/05/27 12:38:30;;;;;;;;;;;;;;;-142.75;71.63;76873.44;5051170;28;19920;-66
2022/05/27 12:41:03;;;;;;;;;;;;;;;-142.75;71.44;76893.13;5051231;28;19960;-66
2022/05/27 12:43:31;;;;;;;;;;;;;;;-142.75;73.34;76946.28;5051041;28;19950;-66
2022/05/27 12:46:02;;;;;;;;;;;;;;;-142.75;73.66;76948.25;5051165;28;19992;-66
2022/05/27 12:48:44;;;;;;;;;;;;;;;-142.75;72.45;76981.72;5050954;28;19967;-66
2022/05/27 12:51:29;;;;;;;;;;;;;;;-142.75;71.37;77066.38;5051063;28;19923;-66
2022/05/27 12:53:56;;;;;;;;;;;;;;;-142.75;73.74;77097.88;5046520;28;20075;-66
2022/05/27 13:02:22;;;;;;;;;;;;;;;-142.75;77.34;77115.59;5051400;28;19928;-66
2022/05/27 13:04:53;;;;;;;;;;;;;;;-142.75;85.23;77066.38;5049462;28;19924;-65